sensor_id;sensor_type;location;lat;lon;timestamp;pressure;altitude;pressure_sealevel;temperature;humidity
50302;BME280;36550;50.472;19.744;2023-02-28T00:02:15;99287.11;;;-0.74;70.93
50302;BME280;36550;50.472;19.744;2023-02-28T00:05:01;99291.56;;;-0.72;71.08
50302;BME280;36550;50.472;19.744;2023-02-28T00:07:47;99290.27;;;-0.71;71.07
50302;BME280;36550;50.472;19.744;2023-02-28T00:10:32;99291.03;;;-0.71;70.89
50302;BME280;36550;50.472;19.744;2023-02-28T00:13:16;99295.06;;;-0.72;70.82
50302;BME280;36550;50.472;19.744;2023-02-28T00:16:06;99293.94;;;-0.75;70.68
50302;BME280;36550;50.472;19.744;2023-02-28T00:18:50;99297.29;;;-0.81;70.45
50302;BME280;36550;50.472;19.744;2023-02-28T00:21:35;99297.86;;;-0.86;70.40
50302;BME280;36550;50.472;19.744;2023-02-28T00:24:20;99296.59;;;-0.91;70.38
50302;BME280;36550;50.472;19.744;2023-02-28T00:27:04;99296.10;;;-0.95;70.40
50302;BME280;36550;50.472;19.744;2023-02-28T00:29:48;99298.73;;;-0.98;70.46
50302;BME280;36550;50.472;19.744;2023-02-28T00:32:32;99298.17;;;-1.02;70.56
50302;BME280;36550;50.472;19.744;2023-02-28T00:35:18;99299.52;;;-1.06;70.53
50302;BME280;36550;50.472;19.744;2023-02-28T00:38:02;99298.90;;;-1.06;70.52
50302;BME280;36550;50.472;19.744;2023-02-28T00:40:48;99295.38;;;-1.07;70.49
50302;BME280;36550;50.472;19.744;2023-02-28T00:43:33;99301.60;;;-1.08;70.56
50302;BME280;36550;50.472;19.744;2023-02-28T00:46:17;99300.30;;;-1.13;70.41
50302;BME280;36550;50.472;19.744;2023-02-28T00:49:01;99298.67;;;-1.14;70.67
50302;BME280;36550;50.472;19.744;2023-02-28T00:51:46;99300.09;;;-1.15;70.86
50302;BME280;36550;50.472;19.744;2023-02-28T00:54:29;99297.27;;;-1.16;70.87
50302;BME280;36550;50.472;19.744;2023-02-28T00:57:13;99301.80;;;-1.19;70.84
50302;BME280;36550;50.472;19.744;2023-02-28T01:00:01;99302.90;;;-1.23;70.84
50302;BME280;36550;50.472;19.744;2023-02-28T01:02:49;99299.86;;;-1.24;71.05
50302;BME280;36550;50.472;19.744;2023-02-28T01:05:33;99296.19;;;-1.23;71.15
50302;BME280;36550;50.472;19.744;2023-02-28T01:08:17;99296.18;;;-1.23;71.23
50302;BME280;36550;50.472;19.744;2023-02-28T01:11:09;99295.31;;;-1.23;71.22
50302;BME280;36550;50.472;19.744;2023-02-28T01:13:53;99293.24;;;-1.25;71.17
50302;BME280;36550;50.472;19.744;2023-02-28T01:16:37;99294.73;;;-1.29;71.04
50302;BME280;36550;50.472;19.744;2023-02-28T01:19:21;99292.79;;;-1.32;71.01
50302;BME280;36550;50.472;19.744;2023-02-28T01:22:06;99293.33;;;-1.34;71.02
50302;BME280;36550;50.472;19.744;2023-02-28T01:24:50;99290.41;;;-1.37;71.06
50302;BME280;36550;50.472;19.744;2023-02-28T01:27:34;99287.73;;;-1.40;71.08
50302;BME280;36550;50.472;19.744;2023-02-28T01:30:18;99288.55;;;-1.43;71.01
50302;BME280;36550;50.472;19.744;2023-02-28T01:33:02;99291.20;;;-1.46;70.95
50302;BME280;36550;50.472;19.744;2023-02-28T01:35:46;99292.29;;;-1.47;70.90
50302;BME280;36550;50.472;19.744;2023-02-28T01:38:30;99291.10;;;-1.45;70.91
50302;BME280;36550;50.472;19.744;2023-02-28T01:41:21;99291.99;;;-1.46;70.80
50302;BME280;36550;50.472;19.744;2023-02-28T01:47:14;99294.43;;;-1.48;70.94
50302;BME280;36550;50.472;19.744;2023-02-28T01:49:58;99290.34;;;-1.48;71.02
50302;BME280;36550;50.472;19.744;2023-02-28T01:52:45;99289.20;;;-1.51;71.09
50302;BME280;36550;50.472;19.744;2023-02-28T01:55:31;99286.41;;;-1.55;71.14
50302;BME280;36550;50.472;19.744;2023-02-28T01:58:17;99288.11;;;-1.57;71.22
50302;BME280;36550;50.472;19.744;2023-02-28T02:01:01;99289.64;;;-1.61;71.31
50302;BME280;36550;50.472;19.744;2023-02-28T02:03:55;99287.14;;;-1.68;71.17
50302;BME280;36550;50.472;19.744;2023-02-28T02:06:44;99288.77;;;-1.78;71.31
50302;BME280;36550;50.472;19.744;2023-02-28T02:09:31;99291.00;;;-1.89;71.28
50302;BME280;36550;50.472;19.744;2023-02-28T02:15:21;99293.58;;;-2.06;71.49
50302;BME280;36550;50.472;19.744;2023-02-28T02:18:26;99290.16;;;-2.13;71.71
50302;BME280;36550;50.472;19.744;2023-02-28T02:36:28;99298.84;;;-2.40;71.96
50302;BME280;36550;50.472;19.744;2023-02-28T02:39:18;99297.39;;;-2.41;72.03
50302;BME280;36550;50.472;19.744;2023-02-28T02:42:11;99294.46;;;-2.41;72.25
50302;BME280;36550;50.472;19.744;2023-02-28T02:45:19;99291.28;;;-2.40;72.32
50302;BME280;36550;50.472;19.744;2023-02-28T02:48:05;99293.42;;;-2.43;72.47
50302;BME280;36550;50.472;19.744;2023-02-28T02:50:55;99297.39;;;-2.44;72.56
50302;BME280;36550;50.472;19.744;2023-02-28T02:53:46;99293.11;;;-2.46;72.62
50302;BME280;36550;50.472;19.744;2023-02-28T02:56:33;99291.41;;;-2.48;72.55
50302;BME280;36550;50.472;19.744;2023-02-28T02:59:21;99291.42;;;-2.50;72.64
50302;BME280;36550;50.472;19.744;2023-02-28T03:02:11;99288.13;;;-2.55;72.62
50302;BME280;36550;50.472;19.744;2023-02-28T03:05:04;99285.80;;;-2.60;72.63
50302;BME280;36550;50.472;19.744;2023-02-28T03:08:06;99285.22;;;-2.70;72.54
50302;BME280;36550;50.472;19.744;2023-02-28T03:11:14;99279.48;;;-2.82;72.35
50302;BME280;36550;50.472;19.744;2023-02-28T03:18:08;99273.44;;;-3.02;72.54
50302;BME280;36550;50.472;19.744;2023-02-28T03:21:12;99271.48;;;-3.13;72.55
50302;BME280;36550;50.472;19.744;2023-02-28T03:24:18;99271.84;;;-3.22;72.46
50302;BME280;36550;50.472;19.744;2023-02-28T03:27:27;99278.02;;;-3.26;72.52
50302;BME280;36550;50.472;19.744;2023-02-28T03:30:47;99275.28;;;-3.32;72.66
50302;BME280;36550;50.472;19.744;2023-02-28T03:33:46;99280.42;;;-3.34;72.86
50302;BME280;36550;50.472;19.744;2023-02-28T03:36:43;99282.15;;;-3.36;72.85
50302;BME280;36550;50.472;19.744;2023-02-28T03:39:49;99284.05;;;-3.39;72.98
50302;BME280;36550;50.472;19.744;2023-02-28T03:42:36;99287.54;;;-3.40;73.22
50302;BME280;36550;50.472;19.744;2023-02-28T03:45:25;99291.16;;;-3.42;73.22
50302;BME280;36550;50.472;19.744;2023-02-28T03:48:15;99291.45;;;-3.47;73.56
50302;BME280;36550;50.472;19.744;2023-02-28T03:51:08;99288.54;;;-3.49;73.55
50302;BME280;36550;50.472;19.744;2023-02-28T03:53:58;99290.58;;;-3.51;73.76
50302;BME280;36550;50.472;19.744;2023-02-28T03:56:49;99296.23;;;-3.54;73.72
50302;BME280;36550;50.472;19.744;2023-02-28T03:59:44;99298.22;;;-3.57;73.77
50302;BME280;36550;50.472;19.744;2023-02-28T04:02:31;99296.98;;;-3.61;73.97
50302;BME280;36550;50.472;19.744;2023-02-28T04:05:15;99300.55;;;-3.66;73.95
50302;BME280;36550;50.472;19.744;2023-02-28T04:08:07;99299.06;;;-3.69;73.93
50302;BME280;36550;50.472;19.744;2023-02-28T04:11:11;99299.63;;;-3.70;73.94
50302;BME280;36550;50.472;19.744;2023-02-28T04:13:59;99298.91;;;-3.64;74.04
50302;BME280;36550;50.472;19.744;2023-02-28T04:16:45;99302.73;;;-3.60;74.04
50302;BME280;36550;50.472;19.744;2023-02-28T04:19:29;99301.52;;;-3.60;74.01
50302;BME280;36550;50.472;19.744;2023-02-28T04:22:13;99307.12;;;-3.60;74.04
50302;BME280;36550;50.472;19.744;2023-02-28T04:24:57;99304.96;;;-3.58;74.17
50302;BME280;36550;50.472;19.744;2023-02-28T04:27:41;99305.66;;;-3.56;74.33
50302;BME280;36550;50.472;19.744;2023-02-28T04:30:32;99308.82;;;-3.55;74.40
50302;BME280;36550;50.472;19.744;2023-02-28T04:33:16;99307.85;;;-3.56;74.47
50302;BME280;36550;50.472;19.744;2023-02-28T04:36:09;99308.31;;;-3.58;74.55
50302;BME280;36550;50.472;19.744;2023-02-28T04:38:54;99310.17;;;-3.62;74.64
50302;BME280;36550;50.472;19.744;2023-02-28T04:42:00;99309.78;;;-3.71;74.79
50302;BME280;36550;50.472;19.744;2023-02-28T04:44:44;99313.05;;;-3.80;74.67
50302;BME280;36550;50.472;19.744;2023-02-28T04:47:28;99317.82;;;-3.88;74.75
50302;BME280;36550;50.472;19.744;2023-02-28T04:50:28;99321.16;;;-3.91;74.91
50302;BME280;36550;50.472;19.744;2023-02-28T04:53:12;99319.95;;;-3.91;75.05
50302;BME280;36550;50.472;19.744;2023-02-28T04:55:56;99318.25;;;-3.86;75.08
50302;BME280;36550;50.472;19.744;2023-02-28T04:58:44;99320.08;;;-3.81;75.23
50302;BME280;36550;50.472;19.744;2023-02-28T05:01:32;99321.62;;;-3.78;75.25
50302;BME280;36550;50.472;19.744;2023-02-28T05:04:17;99322.11;;;-3.74;75.27
50302;BME280;36550;50.472;19.744;2023-02-28T05:07:03;99328.58;;;-3.71;75.33
50302;BME280;36550;50.472;19.744;2023-02-28T05:10:07;99330.88;;;-3.74;75.26
50302;BME280;36550;50.472;19.744;2023-02-28T05:12:52;99342.44;;;-3.75;75.34
50302;BME280;36550;50.472;19.744;2023-02-28T05:15:35;99340.27;;;-3.76;75.46
50302;BME280;36550;50.472;19.744;2023-02-28T05:18:19;99341.36;;;-3.75;75.54
50302;BME280;36550;50.472;19.744;2023-02-28T05:21:03;99344.36;;;-3.74;75.66
50302;BME280;36550;50.472;19.744;2023-02-28T05:23:49;99349.40;;;-3.72;75.74
50302;BME280;36550;50.472;19.744;2023-02-28T05:26:34;99347.42;;;-3.71;75.80
50302;BME280;36550;50.472;19.744;2023-02-28T05:29:20;99349.18;;;-3.69;75.86
50302;BME280;36550;50.472;19.744;2023-02-28T05:32:18;99347.76;;;-3.69;75.86
50302;BME280;36550;50.472;19.744;2023-02-28T05:35:05;99353.61;;;-3.69;75.87
50302;BME280;36550;50.472;19.744;2023-02-28T05:37:53;99360.92;;;-3.71;75.91
50302;BME280;36550;50.472;19.744;2023-02-28T05:40:57;99368.27;;;-3.68;75.98
50302;BME280;36550;50.472;19.744;2023-02-28T05:44:03;99367.07;;;-3.61;76.02
50302;BME280;36550;50.472;19.744;2023-02-28T05:46:47;99362.38;;;-3.51;76.12
50302;BME280;36550;50.472;19.744;2023-02-28T05:49:31;99364.70;;;-3.42;76.34
50302;BME280;36550;50.472;19.744;2023-02-28T05:52:15;99372.41;;;-3.33;76.27
50302;BME280;36550;50.472;19.744;2023-02-28T05:54:59;99374.08;;;-3.20;76.46
50302;BME280;36550;50.472;19.744;2023-02-28T05:58:04;99382.27;;;-3.11;76.52
50302;BME280;36550;50.472;19.744;2023-02-28T06:00:53;99385.14;;;-3.03;76.62
50302;BME280;36550;50.472;19.744;2023-02-28T06:03:39;99386.91;;;-2.95;76.69
50302;BME280;36550;50.472;19.744;2023-02-28T06:06:44;99387.81;;;-2.86;76.73
50302;BME280;36550;50.472;19.744;2023-02-28T06:09:30;99392.64;;;-2.78;76.75
50302;BME280;36550;50.472;19.744;2023-02-28T06:12:35;99396.83;;;-2.67;76.89
50302;BME280;36550;50.472;19.744;2023-02-28T06:15:19;99401.44;;;-2.56;76.95
50302;BME280;36550;50.472;19.744;2023-02-28T06:18:05;99403.10;;;-2.48;76.90
50302;BME280;36550;50.472;19.744;2023-02-28T06:20:55;99404.40;;;-2.38;76.88
50302;BME280;36550;50.472;19.744;2023-02-28T06:23:39;99406.05;;;-2.26;76.92
50302;BME280;36550;50.472;19.744;2023-02-28T06:26:45;99409.95;;;-2.09;76.82
50302;BME280;36550;50.472;19.744;2023-02-28T06:29:30;99412.61;;;-1.95;76.79
50302;BME280;36550;50.472;19.744;2023-02-28T06:32:14;99413.25;;;-1.81;76.81
50302;BME280;36550;50.472;19.744;2023-02-28T06:34:59;99411.89;;;-1.70;76.56
50302;BME280;36550;50.472;19.744;2023-02-28T06:37:44;99413.19;;;-1.56;76.60
50302;BME280;36550;50.472;19.744;2023-02-28T06:40:28;99413.94;;;-1.42;76.65
50302;BME280;36550;50.472;19.744;2023-02-28T06:43:15;99417.11;;;-1.28;76.61
50302;BME280;36550;50.472;19.744;2023-02-28T06:46:01;99412.20;;;-1.14;76.42
50302;BME280;36550;50.472;19.744;2023-02-28T06:48:46;99409.89;;;-0.98;76.39
50302;BME280;36550;50.472;19.744;2023-02-28T06:51:31;99413.45;;;-0.85;76.20
50302;BME280;36550;50.472;19.744;2023-02-28T06:54:32;99412.21;;;-0.78;75.86
50302;BME280;36550;50.472;19.744;2023-02-28T06:57:16;99413.48;;;-0.77;75.68
50302;BME280;36550;50.472;19.744;2023-02-28T07:00:05;99411.05;;;-0.75;75.65
50302;BME280;36550;50.472;19.744;2023-02-28T07:02:51;99408.13;;;-0.77;75.36
50302;BME280;36550;50.472;19.744;2023-02-28T07:05:36;99407.73;;;-0.81;75.29
50302;BME280;36550;50.472;19.744;2023-02-28T07:08:20;99404.54;;;-0.85;75.15
50302;BME280;36550;50.472;19.744;2023-02-28T07:11:05;99405.64;;;-0.88;75.09
50302;BME280;36550;50.472;19.744;2023-02-28T07:13:56;99411.02;;;-0.89;74.85
50302;BME280;36550;50.472;19.744;2023-02-28T07:16:41;99407.04;;;-0.86;74.54
50302;BME280;36550;50.472;19.744;2023-02-28T07:19:25;99410.29;;;-0.84;74.59
50302;BME280;36550;50.472;19.744;2023-02-28T07:22:08;99412.96;;;-0.79;74.89
50302;BME280;36550;50.472;19.744;2023-02-28T07:24:53;99413.49;;;-0.75;74.81
50302;BME280;36550;50.472;19.744;2023-02-28T07:27:36;99409.61;;;-0.76;74.26
50302;BME280;36550;50.472;19.744;2023-02-28T07:30:21;99414.46;;;-0.72;74.39
50302;BME280;36550;50.472;19.744;2023-02-28T07:33:07;99416.70;;;-0.70;74.26
50302;BME280;36550;50.472;19.744;2023-02-28T07:35:51;99415.75;;;-0.67;74.29
50302;BME280;36550;50.472;19.744;2023-02-28T07:38:37;99416.60;;;-0.63;74.26
50302;BME280;36550;50.472;19.744;2023-02-28T07:41:22;99417.20;;;-0.60;74.30
50302;BME280;36550;50.472;19.744;2023-02-28T07:44:27;99420.70;;;-0.56;74.06
50302;BME280;36550;50.472;19.744;2023-02-28T07:47:13;99421.80;;;-0.55;73.95
50302;BME280;36550;50.472;19.744;2023-02-28T07:49:57;99423.58;;;-0.51;73.81
50302;BME280;36550;50.472;19.744;2023-02-28T07:52:42;99424.67;;;-0.46;73.47
50302;BME280;36550;50.472;19.744;2023-02-28T07:55:47;99424.11;;;-0.38;73.68
50302;BME280;36550;50.472;19.744;2023-02-28T07:59:06;99419.95;;;-0.31;73.55
50302;BME280;36550;50.472;19.744;2023-02-28T08:01:51;99421.21;;;-0.23;73.44
50302;BME280;36550;50.472;19.744;2023-02-28T08:04:35;99420.95;;;-0.20;72.80
50302;BME280;36550;50.472;19.744;2023-02-28T08:07:22;99418.91;;;-0.16;72.95
50302;BME280;36550;50.472;19.744;2023-02-28T08:10:07;99414.70;;;-0.15;72.19
50302;BME280;36550;50.472;19.744;2023-02-28T08:12:54;99414.05;;;-0.12;72.06
50302;BME280;36550;50.472;19.744;2023-02-28T08:15:38;99413.66;;;-0.07;72.11
50302;BME280;36550;50.472;19.744;2023-02-28T08:18:24;99412.89;;;-0.00;71.23
50302;BME280;36550;50.472;19.744;2023-02-28T08:21:09;99416.68;;;0.12;71.65
50302;BME280;36550;50.472;19.744;2023-02-28T08:23:54;99410.10;;;0.30;71.48
50302;BME280;36550;50.472;19.744;2023-02-28T08:26:39;99418.80;;;0.53;71.60
50302;BME280;36550;50.472;19.744;2023-02-28T08:29:23;99419.00;;;0.80;71.49
50302;BME280;36550;50.472;19.744;2023-02-28T08:32:08;99417.92;;;1.08;70.77
50302;BME280;36550;50.472;19.744;2023-02-28T08:34:52;99416.98;;;1.35;69.96
50302;BME280;36550;50.472;19.744;2023-02-28T08:37:36;99415.34;;;1.57;69.88
50302;BME280;36550;50.472;19.744;2023-02-28T08:40:21;99412.73;;;1.72;68.43
50302;BME280;36550;50.472;19.744;2023-02-28T08:43:05;99415.64;;;1.80;67.38
50302;BME280;36550;50.472;19.744;2023-02-28T08:45:52;99418.61;;;1.87;67.16
50302;BME280;36550;50.472;19.744;2023-02-28T08:48:36;99418.30;;;2.00;67.42
50302;BME280;36550;50.472;19.744;2023-02-28T08:51:23;99414.73;;;2.08;65.66
50302;BME280;36550;50.472;19.744;2023-02-28T08:54:11;99422.00;;;2.08;65.14
50302;BME280;36550;50.472;19.744;2023-02-28T08:57:03;99420.06;;;2.04;63.74
50302;BME280;36550;50.472;19.744;2023-02-28T08:59:47;99421.89;;;1.97;63.08
50302;BME280;36550;50.472;19.744;2023-02-28T09:02:31;99424.75;;;1.89;63.66
50302;BME280;36550;50.472;19.744;2023-02-28T09:05:15;99425.35;;;1.78;63.38
50302;BME280;36550;50.472;19.744;2023-02-28T09:07:59;99424.48;;;1.68;63.44
50302;BME280;36550;50.472;19.744;2023-02-28T09:10:43;99430.44;;;1.60;63.90
50302;BME280;36550;50.472;19.744;2023-02-28T09:13:31;99426.02;;;1.49;64.05
50302;BME280;36550;50.472;19.744;2023-02-28T09:16:16;99426.79;;;1.45;64.22
50302;BME280;36550;50.472;19.744;2023-02-28T09:19:01;99429.62;;;1.37;63.67
50302;BME280;36550;50.472;19.744;2023-02-28T09:21:45;99427.61;;;1.25;63.21
50302;BME280;36550;50.472;19.744;2023-02-28T09:24:29;99426.64;;;1.14;63.10
50302;BME280;36550;50.472;19.744;2023-02-28T09:27:15;99422.68;;;1.03;62.59
50302;BME280;36550;50.472;19.744;2023-02-28T09:29:59;99421.44;;;0.95;63.19
50302;BME280;36550;50.472;19.744;2023-02-28T09:32:44;99422.10;;;0.93;63.12
50302;BME280;36550;50.472;19.744;2023-02-28T09:35:35;99422.28;;;0.95;63.31
50302;BME280;36550;50.472;19.744;2023-02-28T09:38:21;99422.44;;;1.04;63.83
50302;BME280;36550;50.472;19.744;2023-02-28T09:41:12;99420.38;;;1.13;63.72
50302;BME280;36550;50.472;19.744;2023-02-28T09:44:00;99424.77;;;1.21;63.12
50302;BME280;36550;50.472;19.744;2023-02-28T09:46:49;99428.50;;;1.28;63.58
50302;BME280;36550;50.472;19.744;2023-02-28T09:49:51;99431.63;;;1.39;63.92
50302;BME280;36550;50.472;19.744;2023-02-28T09:52:36;99437.54;;;1.50;63.94
50302;BME280;36550;50.472;19.744;2023-02-28T09:55:45;99434.56;;;1.58;63.23
50302;BME280;36550;50.472;19.744;2023-02-28T09:58:59;99434.79;;;1.69;63.76
50302;BME280;36550;50.472;19.744;2023-02-28T10:02:00;99427.19;;;1.82;63.59
50302;BME280;36550;50.472;19.744;2023-02-28T10:04:54;99426.79;;;1.92;62.84
50302;BME280;36550;50.472;19.744;2023-02-28T10:11:07;99429.83;;;2.03;62.22
50302;BME280;36550;50.472;19.744;2023-02-28T10:14:02;99423.98;;;2.05;62.34
50302;BME280;36550;50.472;19.744;2023-02-28T10:17:12;99422.52;;;2.08;62.14
50302;BME280;36550;50.472;19.744;2023-02-28T10:20:02;99423.01;;;2.06;61.31
50302;BME280;36550;50.472;19.744;2023-02-28T10:22:58;99418.96;;;2.03;59.88
50302;BME280;36550;50.472;19.744;2023-02-28T10:25:53;99418.70;;;2.06;60.62
50302;BME280;36550;50.472;19.744;2023-02-28T10:28:38;99416.41;;;2.12;60.90
50302;BME280;36550;50.472;19.744;2023-02-28T10:31:23;99418.19;;;2.21;61.18
50302;BME280;36550;50.472;19.744;2023-02-28T10:34:12;99411.27;;;2.32;61.99
50302;BME280;36550;50.472;19.744;2023-02-28T10:36:58;99407.09;;;2.41;61.66
50302;BME280;36550;50.472;19.744;2023-02-28T10:39:51;99404.85;;;2.47;61.19
50302;BME280;36550;50.472;19.744;2023-02-28T10:42:36;99407.20;;;2.49;60.77
50302;BME280;36550;50.472;19.744;2023-02-28T10:45:22;99400.52;;;2.50;60.63
50302;BME280;36550;50.472;19.744;2023-02-28T10:50:54;99401.59;;;2.66;60.64
50302;BME280;36550;50.472;19.744;2023-02-28T10:53:51;99397.92;;;2.77;60.38
50302;BME280;36550;50.472;19.744;2023-02-28T10:56:36;99396.45;;;2.93;59.44
50302;BME280;36550;50.472;19.744;2023-02-28T10:59:27;99397.95;;;3.09;59.79
50302;BME280;36550;50.472;19.744;2023-02-28T11:02:38;99401.54;;;3.29;59.45
50302;BME280;36550;50.472;19.744;2023-02-28T11:05:34;99396.00;;;3.46;57.59
50302;BME280;36550;50.472;19.744;2023-02-28T11:08:21;99401.69;;;3.57;57.48
50302;BME280;36550;50.472;19.744;2023-02-28T11:11:06;99396.56;;;3.61;57.37
50302;BME280;36550;50.472;19.744;2023-02-28T11:13:53;99391.38;;;3.68;58.29
50302;BME280;36550;50.472;19.744;2023-02-28T11:16:38;99390.73;;;3.76;58.58
50302;BME280;36550;50.472;19.744;2023-02-28T11:19:25;99387.46;;;3.81;58.45
50302;BME280;36550;50.472;19.744;2023-02-28T11:22:17;99386.44;;;3.84;58.06
50302;BME280;36550;50.472;19.744;2023-02-28T11:25:20;99385.87;;;3.83;57.78
50302;BME280;36550;50.472;19.744;2023-02-28T11:28:26;99383.09;;;3.75;57.80
50302;BME280;36550;50.472;19.744;2023-02-28T11:31:17;99383.67;;;3.67;57.74
50302;BME280;36550;50.472;19.744;2023-02-28T11:34:23;99381.80;;;3.60;57.48
50302;BME280;36550;50.472;19.744;2023-02-28T11:37:15;99376.86;;;3.49;57.64
50302;BME280;36550;50.472;19.744;2023-02-28T11:40:18;99378.70;;;3.32;56.51
50302;BME280;36550;50.472;19.744;2023-02-28T11:52:14;99367.18;;;2.74;57.33
50302;BME280;36550;50.472;19.744;2023-02-28T11:55:17;99368.27;;;2.61;58.21
50302;BME280;36550;50.472;19.744;2023-02-28T12:04:11;99367.79;;;2.39;58.81
50302;BME280;36550;50.472;19.744;2023-02-28T12:07:16;99362.59;;;2.26;58.47
50302;BME280;36550;50.472;19.744;2023-02-28T12:10:25;99359.13;;;2.05;57.29
50302;BME280;36550;50.472;19.744;2023-02-28T12:13:31;99365.39;;;1.91;57.91
50302;BME280;36550;50.472;19.744;2023-02-28T12:20:06;99359.17;;;1.62;58.01
50302;BME280;36550;50.472;19.744;2023-02-28T12:26:23;99353.17;;;1.43;58.68
50302;BME280;36550;50.472;19.744;2023-02-28T12:29:52;99347.67;;;1.41;58.72
50302;BME280;36550;50.472;19.744;2023-02-28T12:32:41;99346.33;;;1.41;58.94
50302;BME280;36550;50.472;19.744;2023-02-28T12:35:47;99341.48;;;1.33;57.86
50302;BME280;36550;50.472;19.744;2023-02-28T12:38:39;99337.89;;;1.27;58.37
50302;BME280;36550;50.472;19.744;2023-02-28T12:41:33;99334.20;;;1.26;58.54
50302;BME280;36550;50.472;19.744;2023-02-28T12:44:35;99333.58;;;1.27;59.19
50302;BME280;36550;50.472;19.744;2023-02-28T12:47:21;99334.68;;;1.30;59.11
50302;BME280;36550;50.472;19.744;2023-02-28T12:50:09;99330.95;;;1.29;59.10
50302;BME280;36550;50.472;19.744;2023-02-28T12:56:28;99327.23;;;1.29;59.64
50302;BME280;36550;50.472;19.744;2023-02-28T12:59:25;99332.91;;;1.31;59.00
50302;BME280;36550;50.472;19.744;2023-02-28T13:05:38;99328.27;;;1.29;59.04
50302;BME280;36550;50.472;19.744;2023-02-28T13:09:03;99321.84;;;1.25;59.03
50302;BME280;36550;50.472;19.744;2023-02-28T13:11:51;99321.48;;;1.22;59.32
50302;BME280;36550;50.472;19.744;2023-02-28T13:14:37;99324.87;;;1.22;59.58
50302;BME280;36550;50.472;19.744;2023-02-28T13:17:23;99321.80;;;1.24;59.94
50302;BME280;36550;50.472;19.744;2023-02-28T13:20:37;99318.79;;;1.23;59.65
50302;BME280;36550;50.472;19.744;2023-02-28T13:24:03;99316.02;;;1.23;59.62
50302;BME280;36550;50.472;19.744;2023-02-28T13:29:39;99311.25;;;1.21;59.86
50302;BME280;36550;50.472;19.744;2023-02-28T13:35:14;99310.60;;;1.28;60.18
50302;BME280;36550;50.472;19.744;2023-02-28T13:38:16;99313.40;;;1.27;59.67
50302;BME280;36550;50.472;19.744;2023-02-28T13:44:13;99313.24;;;1.25;59.89
50302;BME280;36550;50.472;19.744;2023-02-28T13:49:44;99313.25;;;1.20;59.94
50302;BME280;36550;50.472;19.744;2023-02-28T13:52:28;99307.23;;;1.19;60.07
50302;BME280;36550;50.472;19.744;2023-02-28T13:55:29;99308.04;;;1.18;59.79
50302;BME280;36550;50.472;19.744;2023-02-28T13:58:28;99305.08;;;1.21;60.40
50302;BME280;36550;50.472;19.744;2023-02-28T14:01:36;99304.95;;;1.24;60.86
50302;BME280;36550;50.472;19.744;2023-02-28T14:07:46;99298.56;;;1.27;60.79
50302;BME280;36550;50.472;19.744;2023-02-28T14:10:44;99297.98;;;1.32;61.04
50302;BME280;36550;50.472;19.744;2023-02-28T14:13:46;99293.88;;;1.35;61.05
50302;BME280;36550;50.472;19.744;2023-02-28T14:16:44;99289.30;;;1.36;60.93
50302;BME280;36550;50.472;19.744;2023-02-28T14:19:31;99292.52;;;1.33;60.73
50302;BME280;36550;50.472;19.744;2023-02-28T14:25:30;99284.51;;;1.32;60.93
50302;BME280;36550;50.472;19.744;2023-02-28T14:28:40;99283.48;;;1.28;60.84
50302;BME280;36550;50.472;19.744;2023-02-28T14:31:35;99281.48;;;1.24;60.49
50302;BME280;36550;50.472;19.744;2023-02-28T14:34:31;99279.75;;;1.24;60.98
50302;BME280;36550;50.472;19.744;2023-02-28T14:37:32;99280.58;;;1.26;61.30
50302;BME280;36550;50.472;19.744;2023-02-28T14:40:30;99273.88;;;1.28;61.42
50302;BME280;36550;50.472;19.744;2023-02-28T14:43:22;99276.62;;;1.29;61.20
50302;BME280;36550;50.472;19.744;2023-02-28T14:46:06;99274.21;;;1.29;61.01
50302;BME280;36550;50.472;19.744;2023-02-28T14:48:51;99275.46;;;1.27;61.06
50302;BME280;36550;50.472;19.744;2023-02-28T14:51:35;99269.61;;;1.25;60.74
50302;BME280;36550;50.472;19.744;2023-02-28T14:54:20;99266.46;;;1.22;60.66
50302;BME280;36550;50.472;19.744;2023-02-28T15:00:21;99260.67;;;1.18;60.93
50302;BME280;36550;50.472;19.744;2023-02-28T15:03:31;99262.08;;;1.14;60.97
50302;BME280;36550;50.472;19.744;2023-02-28T15:06:20;99263.21;;;1.07;60.86
50302;BME280;36550;50.472;19.744;2023-02-28T15:09:10;99269.77;;;1.00;61.00
50302;BME280;36550;50.472;19.744;2023-02-28T15:11:55;99269.89;;;0.96;61.14
50302;BME280;36550;50.472;19.744;2023-02-28T15:14:42;99268.13;;;0.93;61.01
50302;BME280;36550;50.472;19.744;2023-02-28T15:17:27;99265.42;;;0.90;61.12
50302;BME280;36550;50.472;19.744;2023-02-28T15:20:14;99264.37;;;0.89;61.27
50302;BME280;36550;50.472;19.744;2023-02-28T15:23:00;99262.95;;;0.87;61.41
50302;BME280;36550;50.472;19.744;2023-02-28T15:25:47;99267.27;;;0.84;61.34
50302;BME280;36550;50.472;19.744;2023-02-28T15:28:31;99264.04;;;0.81;61.62
50302;BME280;36550;50.472;19.744;2023-02-28T15:31:27;99258.44;;;0.78;61.69
50302;BME280;36550;50.472;19.744;2023-02-28T15:34:20;99261.55;;;0.74;61.84
50302;BME280;36550;50.472;19.744;2023-02-28T15:40:28;99258.50;;;0.64;62.02
50302;BME280;36550;50.472;19.744;2023-02-28T15:43:17;99259.67;;;0.59;62.00
50302;BME280;36550;50.472;19.744;2023-02-28T15:46:08;99259.15;;;0.53;62.00
50302;BME280;36550;50.472;19.744;2023-02-28T15:48:55;99256.83;;;0.48;62.19
50302;BME280;36550;50.472;19.744;2023-02-28T15:51:40;99256.25;;;0.43;62.34
50302;BME280;36550;50.472;19.744;2023-02-28T15:54:29;99257.21;;;0.38;62.52
50302;BME280;36550;50.472;19.744;2023-02-28T15:57:25;99255.70;;;0.32;62.57
50302;BME280;36550;50.472;19.744;2023-02-28T16:00:15;99258.56;;;0.25;62.55
50302;BME280;36550;50.472;19.744;2023-02-28T16:03:00;99259.38;;;0.18;62.74
50302;BME280;36550;50.472;19.744;2023-02-28T16:05:46;99259.85;;;0.11;62.70
50302;BME280;36550;50.472;19.744;2023-02-28T16:08:49;99255.47;;;0.02;62.93
50302;BME280;36550;50.472;19.744;2023-02-28T16:11:38;99257.56;;;-0.06;63.02
50302;BME280;36550;50.472;19.744;2023-02-28T16:14:25;99262.41;;;-0.14;63.28
50302;BME280;36550;50.472;19.744;2023-02-28T16:17:25;99264.05;;;-0.24;63.35
50302;BME280;36550;50.472;19.744;2023-02-28T16:20:14;99260.29;;;-0.34;63.49
50302;BME280;36550;50.472;19.744;2023-02-28T16:22:59;99257.76;;;-0.44;63.52